createdAt,value
2018-12-21T00:00:57.866Z,999.85
2018-12-21T00:01:57.809Z,999.87
2018-12-21T00:02:57.754Z,999.83
2018-12-21T00:03:57.702Z,999.86
2018-12-21T00:04:57.670Z,999.87
2018-12-21T00:05:57.589Z,999.88
2018-12-21T00:06:57.536Z,999.91
2018-12-21T00:07:58.698Z,999.87
2018-12-21T00:08:57.545Z,999.86
2018-12-21T00:09:57.398Z,999.83
2018-12-21T00:10:57.325Z,999.81
2018-12-21T00:11:57.263Z,999.77
2018-12-21T00:12:57.214Z,999.77
2018-12-21T00:13:57.157Z,999.77
2018-12-21T00:14:57.133Z,999.78
2018-12-21T00:15:57.066Z,999.79
2018-12-21T00:16:56.990Z,999.78
2018-12-21T00:17:56.943Z,999.69
2018-12-21T00:18:56.886Z,999.70
2018-12-21T00:19:56.833Z,999.71
2018-12-21T00:20:56.797Z,999.67
2018-12-21T00:21:56.723Z,999.69
2018-12-21T00:22:56.671Z,999.66
2018-12-21T00:23:56.616Z,999.64
2018-12-21T00:24:56.556Z,999.64
2018-12-21T00:25:56.531Z,999.62
2018-12-21T00:26:56.449Z,999.63
2018-12-21T00:27:56.393Z,999.64
2018-12-21T00:28:56.339Z,999.59
2018-12-21T00:29:56.294Z,999.60
2018-12-21T00:30:56.259Z,999.58
2018-12-21T00:31:56.177Z,999.66
2018-12-21T00:32:56.122Z,999.70
2018-12-21T00:33:56.065Z,999.65
2018-12-21T00:34:56.014Z,999.62
2018-12-21T00:35:55.978Z,999.56
2018-12-21T00:36:55.903Z,999.50
2018-12-21T00:37:55.857Z,999.46
2018-12-21T00:38:55.801Z,999.42
2018-12-21T00:39:55.740Z,999.38
2018-12-21T00:40:55.713Z,999.36
2018-12-21T00:41:55.633Z,999.32
2018-12-21T00:42:55.591Z,999.37
2018-12-21T00:43:55.522Z,999.38
2018-12-21T00:44:55.475Z,999.49
2018-12-21T00:45:55.441Z,999.46
2018-12-21T00:46:55.360Z,999.47
2018-12-21T00:47:55.305Z,999.47
2018-12-21T00:48:55.252Z,999.41
2018-12-21T00:49:55.201Z,999.33
2018-12-21T00:50:55.167Z,999.28
2018-12-21T00:51:55.087Z,999.20
2018-12-21T00:52:55.032Z,999.19
2018-12-21T00:53:54.978Z,999.27
2018-12-21T00:54:54.927Z,999.33
2018-12-21T00:55:54.890Z,999.40
2018-12-21T00:56:54.821Z,999.41
2018-12-21T00:57:54.760Z,999.45
2018-12-21T00:58:54.711Z,999.42
2018-12-21T00:59:54.657Z,999.39
2018-12-21T01:00:54.624Z,999.32
2018-12-21T01:01:54.542Z,999.31
2018-12-21T01:02:54.487Z,999.27
2018-12-21T01:03:54.436Z,999.24
2018-12-21T01:04:54.375Z,999.24
2018-12-21T01:05:54.351Z,999.26
2018-12-21T01:06:54.268Z,999.23
2018-12-21T01:07:54.215Z,999.23
2018-12-21T01:08:54.162Z,999.25
2018-12-21T01:09:54.110Z,999.23
2018-12-21T01:10:54.090Z,999.28
2018-12-21T01:11:54.001Z,999.22
2018-12-21T01:12:53.941Z,999.23
2018-12-21T01:13:53.889Z,999.16
2018-12-21T01:14:53.832Z,999.15
2018-12-21T01:15:53.778Z,999.17
2018-12-21T01:16:53.745Z,999.15
2018-12-21T01:17:53.667Z,999.12
2018-12-21T01:18:53.616Z,999.12
2018-12-21T01:19:53.559Z,999.11
2018-12-21T01:20:53.511Z,999.11
2018-12-21T01:21:53.473Z,999.13
2018-12-21T01:22:53.398Z,999.15
2018-12-21T01:23:53.343Z,999.10
2018-12-21T01:24:53.286Z,999.11
2018-12-21T01:25:53.236Z,999.10
2018-12-21T01:26:53.205Z,999.12
2018-12-21T01:27:53.126Z,999.12
2018-12-21T01:28:53.069Z,999.12
2018-12-21T01:29:53.014Z,999.11
2018-12-21T01:30:52.961Z,999.12
2018-12-21T01:31:52.930Z,999.07
2018-12-21T01:32:52.847Z,999.04
2018-12-21T01:33:52.796Z,999.06
2018-12-21T01:34:52.736Z,999.11
2018-12-21T01:35:52.685Z,999.09
2018-12-21T01:36:52.682Z,999.12
2018-12-21T01:37:52.579Z,999.12
2018-12-21T01:38:52.524Z,999.14
2018-12-21T01:39:52.467Z,999.11
2018-12-21T01:40:52.412Z,999.11
2018-12-21T01:41:52.380Z,999.12
2018-12-21T01:42:52.332Z,999.15
2018-12-21T01:43:52.246Z,999.17
2018-12-21T01:44:52.196Z,999.14
2018-12-21T01:45:52.140Z,999.13
2018-12-21T01:46:52.112Z,999.13
2018-12-21T01:47:52.032Z,999.13
2018-12-21T01:48:51.979Z,999.08
2018-12-21T01:49:51.922Z,999.04
2018-12-21T01:50:51.871Z,999.08
2018-12-21T01:51:51.839Z,999.08
2018-12-21T01:52:51.785Z,999.05
2018-12-21T01:53:51.708Z,999.02
2018-12-21T01:54:51.649Z,999.03
2018-12-21T01:55:51.601Z,999.01
2018-12-21T01:56:51.542Z,998.92
2018-12-21T01:57:51.511Z,998.92
2018-12-21T01:58:51.432Z,998.90
2018-12-21T01:59:51.381Z,998.92
2018-12-21T02:00:51.324Z,998.89
2018-12-21T02:01:51.269Z,998.87
2018-12-21T02:02:51.238Z,998.87
2018-12-21T02:03:51.159Z,998.85
2018-12-21T02:04:51.126Z,998.81
2018-12-21T02:05:51.048Z,998.78
2018-12-21T02:06:50.997Z,998.84
2018-12-21T02:07:50.965Z,998.79
2018-12-21T02:08:50.889Z,998.78
2018-12-21T02:09:50.836Z,998.76
2018-12-21T02:10:50.779Z,998.77
2018-12-21T02:11:50.723Z,998.75
2018-12-21T02:12:50.696Z,998.74
2018-12-21T02:13:50.620Z,998.75
2018-12-21T02:14:50.559Z,998.75
2018-12-21T02:15:50.509Z,998.75
2018-12-21T02:16:50.451Z,998.74
2018-12-21T02:17:50.424Z,998.74
2018-12-21T02:18:50.347Z,998.73
2018-12-21T02:19:50.285Z,998.72
2018-12-21T02:20:50.234Z,998.73
2018-12-21T02:21:55.799Z,998.76
2018-12-21T02:22:50.147Z,998.71
2018-12-21T02:23:50.072Z,998.71
2018-12-21T02:24:50.016Z,998.66
2018-12-21T02:25:49.964Z,998.61
2018-12-21T02:26:49.924Z,998.59
2018-12-21T02:27:49.878Z,998.56
2018-12-21T02:28:49.798Z,998.60
2018-12-21T02:29:49.743Z,998.56
2018-12-21T02:30:49.692Z,998.51
2018-12-21T02:31:49.636Z,998.48
2018-12-21T02:32:49.610Z,998.48
2018-12-21T02:33:49.525Z,998.50
2018-12-21T02:34:49.470Z,998.46
2018-12-21T02:35:49.417Z,998.46
2018-12-21T02:36:49.363Z,998.43
2018-12-21T02:37:49.329Z,998.42
2018-12-21T02:38:49.253Z,998.43
2018-12-21T02:39:49.197Z,998.36
2018-12-21T02:40:49.142Z,998.39
2018-12-21T02:41:49.093Z,998.37
2018-12-21T02:42:49.078Z,998.31
2018-12-21T02:43:48.984Z,998.29
2018-12-21T02:44:48.928Z,998.29
2018-12-21T02:45:48.877Z,998.30
2018-12-21T02:46:48.819Z,998.31
2018-12-21T02:47:48.765Z,998.29
2018-12-21T02:48:48.736Z,998.27
2018-12-21T02:49:48.653Z,998.25
2018-12-21T02:50:48.602Z,998.22
2018-12-21T02:51:48.544Z,998.19
2018-12-21T02:52:48.497Z,998.18
2018-12-21T02:53:48.461Z,998.18
2018-12-21T02:54:48.389Z,998.13
2018-12-21T02:55:48.322Z,998.10
2018-12-21T02:56:48.275Z,998.03
2018-12-21T02:57:48.220Z,998.01
2018-12-21T02:58:48.187Z,997.99
2018-12-21T02:59:48.116Z,997.94
2018-12-21T03:00:48.061Z,997.93
2018-12-21T03:01:48.002Z,997.94
2018-12-21T03:02:47.948Z,997.94
2018-12-21T03:03:47.915Z,997.95
2018-12-21T03:04:47.836Z,997.94
2018-12-21T03:05:47.782Z,997.89
2018-12-21T03:06:47.730Z,997.91
2018-12-21T03:07:47.745Z,997.91
2018-12-21T03:08:47.649Z,997.93
2018-12-21T03:09:47.567Z,997.92
2018-12-21T03:10:47.512Z,997.92
2018-12-21T03:11:47.457Z,997.92
2018-12-21T03:12:47.525Z,997.93
2018-12-21T03:13:47.377Z,997.95
2018-12-21T03:14:47.299Z,997.94
2018-12-21T03:15:47.239Z,997.89
2018-12-21T03:16:47.183Z,997.90
2018-12-21T03:17:47.136Z,997.84
2018-12-21T03:18:49.015Z,997.87
2018-12-21T03:19:47.022Z,997.85
2018-12-21T03:20:46.966Z,997.89
2018-12-21T03:21:46.922Z,997.86
2018-12-21T03:22:46.859Z,997.85
2018-12-21T03:23:46.828Z,997.82
2018-12-21T03:24:46.748Z,997.83
2018-12-21T03:25:46.693Z,997.82
2018-12-21T03:26:46.643Z,997.79
2018-12-21T03:27:46.585Z,997.80
2018-12-21T03:28:46.562Z,997.76
2018-12-21T03:29:46.474Z,997.78
2018-12-21T03:30:46.424Z,997.79
2018-12-21T03:31:46.375Z,997.76
2018-12-21T03:32:46.314Z,997.75
2018-12-21T03:33:46.286Z,997.76
2018-12-21T03:34:46.206Z,997.74
2018-12-21T03:35:46.152Z,997.74
2018-12-21T03:36:46.100Z,997.71
2018-12-21T03:37:46.048Z,997.70
2018-12-21T03:38:46.016Z,997.67
2018-12-21T03:39:45.936Z,997.65
2018-12-21T03:40:45.877Z,997.62
2018-12-21T03:41:45.823Z,997.58
2018-12-21T03:42:45.768Z,997.54
2018-12-21T03:43:45.752Z,997.50
2018-12-21T03:44:45.664Z,997.47
2018-12-21T03:45:45.606Z,997.43
2018-12-21T03:46:45.552Z,997.36
2018-12-21T03:47:45.497Z,997.32
2018-12-21T03:48:45.471Z,997.28
2018-12-21T03:49:45.390Z,997.26
2018-12-21T03:50:45.335Z,997.24
2018-12-21T03:51:45.284Z,997.17
2018-12-21T03:52:45.234Z,997.13
2018-12-21T03:53:45.194Z,997.13
2018-12-21T03:54:45.114Z,997.18
2018-12-21T03:55:45.063Z,997.14
2018-12-21T03:56:45.013Z,997.14
2018-12-21T03:57:44.958Z,997.07
2018-12-21T03:58:44.930Z,997.03
2018-12-21T03:59:52.032Z,996.98
2018-12-21T04:00:44.801Z,996.92
2018-12-21T04:01:44.738Z,996.87
2018-12-21T04:02:44.683Z,996.91
2018-12-21T04:03:44.629Z,996.91
2018-12-21T04:04:44.603Z,996.88
2018-12-21T04:05:44.525Z,996.85
2018-12-21T04:06:44.461Z,996.81
2018-12-21T04:07:44.410Z,996.83
2018-12-21T04:08:44.353Z,996.81
2018-12-21T04:09:44.323Z,996.75
2018-12-21T04:10:44.246Z,996.77
2018-12-21T04:11:44.191Z,996.72
2018-12-21T04:12:44.136Z,996.73
2018-12-21T04:13:44.084Z,996.68
2018-12-21T04:14:44.048Z,996.66
2018-12-21T04:15:43.973Z,996.64
2018-12-21T04:16:43.919Z,996.58
2018-12-21T04:17:43.868Z,996.58
2018-12-21T04:18:43.813Z,996.57
2018-12-21T04:19:43.785Z,996.57
2018-12-21T04:20:43.702Z,996.55
2018-12-21T04:21:43.647Z,996.56
2018-12-21T04:22:43.596Z,996.51
2018-12-21T04:23:43.539Z,996.52
2018-12-21T04:24:43.507Z,996.52
2018-12-21T04:25:43.428Z,996.47
2018-12-21T04:26:43.372Z,996.44
2018-12-21T04:27:43.321Z,996.40
2018-12-21T04:28:43.268Z,996.38
2018-12-21T04:29:43.254Z,996.39
2018-12-21T04:30:43.163Z,996.38
2018-12-21T04:31:43.101Z,996.36
2018-12-21T04:32:43.049Z,996.32
2018-12-21T04:33:42.993Z,996.34
2018-12-21T04:34:42.965Z,996.34
2018-12-21T04:35:42.895Z,996.32
2018-12-21T04:36:42.832Z,996.34
2018-12-21T04:37:42.782Z,996.28
2018-12-21T04:38:42.726Z,996.29
2018-12-21T04:39:42.695Z,996.28
2018-12-21T04:40:42.612Z,996.27
2018-12-21T04:41:42.561Z,996.27
2018-12-21T04:42:42.505Z,996.30
2018-12-21T04:43:42.451Z,996.30
2018-12-21T04:44:42.423Z,996.28
2018-12-21T04:45:42.340Z,996.26
2018-12-21T04:46:42.288Z,996.25
2018-12-21T04:47:42.232Z,996.24
2018-12-21T04:48:42.179Z,996.25
2018-12-21T04:49:42.146Z,996.22
2018-12-21T04:50:42.073Z,996.22
2018-12-21T04:51:42.015Z,996.14
2018-12-21T04:52:43.311Z,996.15
2018-12-21T04:53:41.897Z,996.11
2018-12-21T04:54:41.878Z,996.06
2018-12-21T04:55:41.798Z,996.09
2018-12-21T04:56:41.743Z,996.06
2018-12-21T04:57:41.700Z,996.06
2018-12-21T04:58:41.634Z,996.03
2018-12-21T04:59:41.599Z,996.02
2018-12-21T05:00:41.523Z,995.96
2018-12-21T05:01:41.470Z,995.99
2018-12-21T05:02:41.417Z,995.93
2018-12-21T05:03:41.363Z,995.88
2018-12-21T05:04:41.333Z,995.87
2018-12-21T05:05:41.252Z,995.86
2018-12-21T05:06:41.207Z,995.87
2018-12-21T05:07:41.140Z,995.85
2018-12-21T05:08:41.089Z,995.82
2018-12-21T05:09:41.061Z,995.82
2018-12-21T05:10:40.982Z,995.79
2018-12-21T05:11:40.927Z,995.75
2018-12-21T05:12:40.875Z,995.72
2018-12-21T05:13:40.817Z,995.68
2018-12-21T05:14:40.788Z,995.69
2018-12-21T05:15:40.709Z,995.66
2018-12-21T05:16:40.658Z,995.63
2018-12-21T05:17:40.601Z,995.64
2018-12-21T05:18:40.548Z,995.57
2018-12-21T05:19:40.515Z,995.57
2018-12-21T05:20:40.437Z,995.53
2018-12-21T05:21:40.380Z,995.56
2018-12-21T05:22:40.325Z,995.56
2018-12-21T05:23:40.273Z,995.57
2018-12-21T05:24:40.251Z,995.54
2018-12-21T05:25:40.163Z,995.54
2018-12-21T05:26:40.110Z,995.51
2018-12-21T05:27:40.059Z,995.52
2018-12-21T05:28:39.997Z,995.47
2018-12-21T05:29:39.971Z,995.49
2018-12-21T05:30:39.889Z,995.50
2018-12-21T05:31:39.836Z,995.46
2018-12-21T05:32:39.783Z,995.51
2018-12-21T05:33:39.725Z,995.47
2018-12-21T05:34:39.701Z,995.45
2018-12-21T05:35:39.621Z,995.44
2018-12-21T05:36:39.567Z,995.42
2018-12-21T05:37:39.512Z,995.35
2018-12-21T05:38:39.459Z,995.32
2018-12-21T05:39:39.427Z,995.30
2018-12-21T05:40:39.348Z,995.23
2018-12-21T05:41:39.293Z,995.19
2018-12-21T05:42:39.245Z,995.20
2018-12-21T05:43:39.186Z,995.17
2018-12-21T05:44:39.151Z,995.14
2018-12-21T05:45:39.075Z,995.13
2018-12-21T05:46:39.027Z,995.13
2018-12-21T05:47:38.974Z,995.12
2018-12-21T05:48:38.909Z,995.14
2018-12-21T05:49:38.886Z,995.15
2018-12-21T05:50:38.810Z,995.13
2018-12-21T05:51:38.750Z,995.11
2018-12-21T05:52:38.700Z,995.12
2018-12-21T05:53:38.644Z,995.07
2018-12-21T05:54:38.612Z,995.03
2018-12-21T05:55:38.537Z,995.00
2018-12-21T05:56:38.482Z,994.95
2018-12-21T05:57:38.422Z,994.93
2018-12-21T05:58:38.369Z,994.90
2018-12-21T05:59:38.375Z,994.85
2018-12-21T06:00:38.270Z,994.83
2018-12-21T06:01:38.208Z,994.85
2018-12-21T06:02:38.158Z,994.82
2018-12-21T06:03:38.103Z,994.76
2018-12-21T06:04:38.070Z,994.80
2018-12-21T06:05:37.995Z,994.75
2018-12-21T06:06:37.939Z,994.66
2018-12-21T06:07:37.967Z,994.60
2018-12-21T06:08:37.844Z,994.53
2018-12-21T06:09:37.814Z,994.49
2018-12-21T06:10:37.725Z,994.46
2018-12-21T06:11:37.671Z,994.42
2018-12-21T06:12:37.614Z,994.35
2018-12-21T06:13:37.562Z,994.33
2018-12-21T06:14:37.532Z,994.36
2018-12-21T06:15:37.459Z,994.35
2018-12-21T06:16:37.401Z,994.35
2018-12-21T06:17:37.348Z,994.32
2018-12-21T06:18:37.325Z,994.32
2018-12-21T06:19:37.235Z,994.34
2018-12-21T06:20:37.210Z,994.33
2018-12-21T06:21:37.132Z,994.39
2018-12-21T06:22:37.077Z,994.34
2018-12-21T06:23:37.021Z,994.31
2018-12-21T06:24:36.971Z,994.28
2018-12-21T06:25:36.940Z,994.27
2018-12-21T06:26:36.859Z,994.25
2018-12-21T06:27:36.834Z,994.26
2018-12-21T06:28:36.752Z,994.25
2018-12-21T06:29:36.729Z,994.22
2018-12-21T06:30:36.680Z,994.21
2018-12-21T06:31:36.598Z,994.17
2018-12-21T06:32:36.554Z,994.11
2018-12-21T06:33:36.483Z,994.10
2018-12-21T06:34:36.430Z,994.07
2018-12-21T06:35:36.399Z,994.05
2018-12-21T06:36:36.317Z,994.00
2018-12-21T06:37:36.265Z,993.95
2018-12-21T06:38:36.211Z,993.90
2018-12-21T06:39:36.160Z,993.86
2018-12-21T06:40:36.136Z,993.76
2018-12-21T06:41:36.048Z,993.74
2018-12-21T06:42:35.991Z,993.69
2018-12-21T06:43:35.942Z,993.64
2018-12-21T06:44:35.885Z,993.65
2018-12-21T06:45:35.864Z,993.57
2018-12-21T06:46:35.775Z,993.51
2018-12-21T06:47:35.728Z,993.52
2018-12-21T06:48:35.670Z,993.42
2018-12-21T06:49:35.613Z,993.40
2018-12-21T06:50:35.593Z,993.45
2018-12-21T06:51:35.507Z,993.47
2018-12-21T06:52:35.457Z,993.45
2018-12-21T06:53:35.407Z,993.51
2018-12-21T06:54:35.348Z,993.49
2018-12-21T06:55:35.321Z,993.49
2018-12-21T06:56:35.237Z,993.45
2018-12-21T06:57:35.181Z,993.43
2018-12-21T06:58:35.130Z,993.46
2018-12-21T06:59:35.097Z,993.50
2018-12-21T07:00:35.048Z,993.43
2018-12-21T07:01:34.965Z,993.43
2018-12-21T07:02:34.912Z,993.44
2018-12-21T07:03:34.861Z,993.41
2018-12-21T07:04:34.805Z,993.37
2018-12-21T07:05:34.776Z,993.37
2018-12-21T07:06:34.694Z,993.34
2018-12-21T07:07:34.650Z,993.36
2018-12-21T07:08:34.591Z,993.30
2018-12-21T07:09:34.532Z,993.25
2018-12-21T07:10:34.506Z,993.30
2018-12-21T07:11:34.445Z,993.25
2018-12-21T07:12:34.366Z,993.22
2018-12-21T07:13:34.319Z,993.13
2018-12-21T07:14:34.401Z,993.17
2018-12-21T07:15:34.214Z,993.10
2018-12-21T07:16:34.178Z,993.03
2018-12-21T07:17:34.099Z,992.98
2018-12-21T07:18:34.046Z,992.93
2018-12-21T07:19:33.991Z,992.95
2018-12-21T07:20:33.938Z,992.87
2018-12-21T07:21:33.903Z,992.87
2018-12-21T07:22:33.834Z,992.82
2018-12-21T07:23:33.777Z,992.77
2018-12-21T07:24:33.723Z,992.85
2018-12-21T07:25:33.665Z,992.85
2018-12-21T07:26:33.638Z,992.89
2018-12-21T07:27:33.557Z,992.82
2018-12-21T07:28:33.507Z,992.80
2018-12-21T07:29:33.474Z,992.80
2018-12-21T07:30:33.403Z,992.71
2018-12-21T07:31:33.360Z,992.65
2018-12-21T07:32:33.287Z,992.69
2018-12-21T07:33:33.230Z,992.64
2018-12-21T07:34:33.181Z,992.60
2018-12-21T07:35:33.129Z,992.51
2018-12-21T07:36:33.097Z,992.43
2018-12-21T07:37:33.019Z,992.44
2018-12-21T07:38:32.971Z,992.41
2018-12-21T07:39:32.913Z,992.39
2018-12-21T07:40:32.858Z,992.35
2018-12-21T07:41:32.820Z,992.34
2018-12-21T07:42:32.753Z,992.35
2018-12-21T07:43:32.695Z,992.31
2018-12-21T07:44:32.642Z,992.29
2018-12-21T07:45:32.587Z,992.27
2018-12-21T07:46:32.555Z,992.20
2018-12-21T07:47:32.485Z,992.23
2018-12-21T07:48:32.428Z,992.25
2018-12-21T07:49:32.373Z,992.21
2018-12-21T07:50:32.342Z,992.25
2018-12-21T07:51:32.287Z,992.20
2018-12-21T07:52:32.207Z,992.14
2018-12-21T07:53:35.932Z,992.11
2018-12-21T07:54:32.099Z,992.03
2018-12-21T07:55:32.039Z,992.04
2018-12-21T07:56:32.008Z,992.02
2018-12-21T07:57:31.937Z,992.04
2018-12-21T07:58:31.885Z,991.95
2018-12-21T07:59:31.823Z,991.95
2018-12-21T08:00:31.786Z,991.90
2018-12-21T08:01:31.763Z,991.93
2018-12-21T08:02:31.663Z,991.92
2018-12-21T08:03:31.615Z,991.90
2018-12-21T08:04:31.555Z,991.82
2018-12-21T08:05:31.507Z,991.80
2018-12-21T08:06:31.565Z,991.78
2018-12-21T08:07:31.412Z,991.79
2018-12-21T08:08:31.343Z,991.79
2018-12-21T08:09:31.289Z,991.79
2018-12-21T08:10:31.312Z,991.78
2018-12-21T08:11:31.192Z,991.76
2018-12-21T08:12:31.147Z,991.70
2018-12-21T08:13:31.067Z,991.59
2018-12-21T08:14:31.011Z,991.52
2018-12-21T08:15:30.956Z,991.53
2018-12-21T08:16:30.924Z,991.46
2018-12-21T08:17:30.872Z,991.38
2018-12-21T08:18:30.795Z,991.33
2018-12-21T08:19:32.142Z,991.33
2018-12-21T08:20:30.688Z,991.30
2018-12-21T08:21:30.630Z,991.29
2018-12-21T08:22:30.607Z,991.29
2018-12-21T08:23:30.521Z,991.29
2018-12-21T08:24:30.474Z,991.24
2018-12-21T08:25:30.415Z,991.18
2018-12-21T08:26:30.357Z,991.25
2018-12-21T08:27:30.326Z,991.18
2018-12-21T08:28:30.251Z,991.17
2018-12-21T08:29:30.200Z,991.18
2018-12-21T08:30:30.140Z,991.12
2018-12-21T08:31:30.093Z,991.04
2018-12-21T08:32:30.058Z,991.03
2018-12-21T08:33:29.982Z,991.00
2018-12-21T08:34:29.922Z,990.94
2018-12-21T08:35:29.870Z,990.90
2018-12-21T08:36:29.819Z,990.88
2018-12-21T08:37:29.788Z,990.83
2018-12-21T08:38:29.708Z,990.83
2018-12-21T08:39:29.662Z,990.87
2018-12-21T08:40:29.602Z,990.83
2018-12-21T08:41:29.545Z,990.83
2018-12-21T08:42:29.520Z,990.82
2018-12-21T08:43:29.440Z,990.82
2018-12-21T08:44:29.385Z,990.71
2018-12-21T08:45:29.335Z,990.75
2018-12-21T08:46:29.279Z,990.76
2018-12-21T08:47:29.261Z,990.74
2018-12-21T08:48:29.167Z,990.73
2018-12-21T08:49:29.124Z,990.73
2018-12-21T08:50:29.064Z,990.70
2018-12-21T08:51:29.005Z,990.70
2018-12-21T08:52:28.950Z,990.63
2018-12-21T08:53:28.926Z,990.62
2018-12-21T08:54:28.839Z,990.58
2018-12-21T08:55:28.793Z,990.55
2018-12-21T08:56:28.751Z,990.49
2018-12-21T08:57:28.695Z,990.49
2018-12-21T08:58:28.652Z,990.44
2018-12-21T08:59:28.577Z,990.40
2018-12-21T09:00:28.518Z,990.38
2018-12-21T09:01:28.475Z,990.32
2018-12-21T09:02:28.415Z,990.35
2018-12-21T09:03:28.379Z,990.36
2018-12-21T09:04:32.095Z,990.31
2018-12-21T09:05:28.253Z,990.26
2018-12-21T09:06:28.194Z,990.25
2018-12-21T09:07:28.143Z,990.18
2018-12-21T09:08:28.111Z,990.20
2018-12-21T09:09:28.036Z,990.21
2018-12-21T09:10:27.976Z,990.20
2018-12-21T09:11:27.928Z,990.20
2018-12-21T09:12:27.867Z,990.11
2018-12-21T09:13:27.843Z,990.15
2018-12-21T09:14:27.766Z,990.09
2018-12-21T09:15:27.707Z,990.03
2018-12-21T09:16:27.647Z,990.05
2018-12-21T09:17:27.597Z,990.02
2018-12-21T09:18:27.570Z,989.98
2018-12-21T09:19:27.493Z,989.98
2018-12-21T09:20:27.440Z,989.95
2018-12-21T09:21:27.388Z,989.96
2018-12-21T09:22:27.328Z,989.92
2018-12-21T09:23:27.335Z,989.87
2018-12-21T09:24:27.217Z,989.91
2018-12-21T09:25:27.165Z,989.82
2018-12-21T09:26:27.117Z,989.82
2018-12-21T09:27:27.058Z,989.75
2018-12-21T09:28:27.024Z,989.75
2018-12-21T09:29:26.956Z,989.71
2018-12-21T09:30:26.895Z,989.72
2018-12-21T09:31:26.835Z,989.69
2018-12-21T09:32:26.789Z,989.70
2018-12-21T09:33:26.730Z,989.65
2018-12-21T09:34:26.702Z,989.60
2018-12-21T09:35:26.662Z,989.58
2018-12-21T09:36:26.568Z,989.55
2018-12-21T09:37:26.512Z,989.55
2018-12-21T09:38:26.460Z,989.55
2018-12-21T09:39:26.428Z,989.48
2018-12-21T09:40:26.351Z,989.50
2018-12-21T09:41:26.297Z,989.46
2018-12-21T09:42:26.243Z,989.44
2018-12-21T09:43:26.188Z,989.44
2018-12-21T09:44:26.162Z,989.42
2018-12-21T09:45:26.081Z,989.39
2018-12-21T09:46:26.038Z,989.34
2018-12-21T09:47:25.973Z,989.38
2018-12-21T09:48:25.918Z,989.37
2018-12-21T09:49:25.889Z,989.31
2018-12-21T09:50:25.802Z,989.25
2018-12-21T09:51:25.760Z,989.17
2018-12-21T09:52:25.679Z,989.14
2018-12-21T09:53:25.649Z,989.13
2018-12-21T09:54:25.637Z,989.06
2018-12-21T09:55:25.547Z,989.01
2018-12-21T09:56:25.483Z,988.98
2018-12-21T09:57:25.427Z,988.93
2018-12-21T09:58:25.376Z,988.93
2018-12-21T09:59:25.345Z,988.89
2018-12-21T10:00:25.265Z,988.89
2018-12-21T10:01:25.213Z,988.87
2018-12-21T10:02:25.161Z,988.87
2018-12-21T10:03:25.104Z,988.82
2018-12-21T10:04:25.073Z,988.79
2018-12-21T10:05:24.997Z,988.78
2018-12-21T10:06:24.948Z,988.76
2018-12-21T10:07:27.690Z,988.77
2018-12-21T10:08:24.847Z,988.76
2018-12-21T10:09:24.915Z,988.75
2018-12-21T10:10:24.737Z,988.70
2018-12-21T10:11:24.676Z,988.67
2018-12-21T10:12:24.617Z,988.62
2018-12-21T10:13:24.632Z,988.65
2018-12-21T10:14:24.533Z,988.63
2018-12-21T10:15:24.460Z,988.54
2018-12-21T10:16:24.439Z,988.50
2018-12-21T10:17:24.346Z,988.47
2018-12-21T10:18:24.296Z,988.45
2018-12-21T10:19:24.269Z,988.44
2018-12-21T10:20:24.188Z,988.45
2018-12-21T10:21:24.141Z,988.43
2018-12-21T10:22:24.077Z,988.43
2018-12-21T10:23:24.047Z,988.37
2018-12-21T10:24:23.993Z,988.39
2018-12-21T10:25:23.920Z,988.33
2018-12-21T10:26:23.873Z,988.31
2018-12-21T10:27:23.806Z,988.31
2018-12-21T10:28:23.755Z,988.29
2018-12-21T10:29:23.727Z,988.23
2018-12-21T10:30:23.646Z,988.21
2018-12-21T10:31:23.588Z,988.13
2018-12-21T10:32:23.540Z,988.03
2018-12-21T10:33:23.493Z,988.09
2018-12-21T10:34:23.453Z,988.00
2018-12-21T10:35:23.404Z,987.94
2018-12-21T10:36:23.342Z,987.91
2018-12-21T10:37:24.404Z,987.87
2018-12-21T10:38:23.208Z,987.83
2018-12-21T10:39:23.183Z,987.79
2018-12-21T10:40:23.105Z,987.75
2018-12-21T10:41:23.049Z,987.66
2018-12-21T10:42:22.998Z,987.67
2018-12-21T10:43:22.950Z,987.62
2018-12-21T10:44:22.924Z,987.60
2018-12-21T10:45:22.843Z,987.53
2018-12-21T10:46:22.787Z,987.52
2018-12-21T10:47:22.729Z,987.45
2018-12-21T10:48:22.678Z,987.45
2018-12-21T10:49:22.717Z,987.45
2018-12-21T10:50:22.568Z,987.46
2018-12-21T10:51:22.511Z,987.46
2018-12-21T10:52:22.456Z,987.43
2018-12-21T10:53:22.419Z,987.39
2018-12-21T10:54:26.825Z,987.36
2018-12-21T10:55:22.317Z,987.34
2018-12-21T10:56:22.242Z,987.27
2018-12-21T10:57:22.189Z,987.27
2018-12-21T10:58:22.157Z,987.23
2018-12-21T10:59:22.081Z,987.22
2018-12-21T11:00:22.054Z,987.14
2018-12-21T11:01:21.980Z,987.16
2018-12-21T11:02:21.925Z,987.10
2018-12-21T11:03:21.867Z,987.05
2018-12-21T11:04:21.815Z,987.06
2018-12-21T11:05:21.785Z,987.03
2018-12-21T11:06:21.693Z,986.99
2018-12-21T11:07:21.652Z,987.01
2018-12-21T11:08:21.601Z,986.96
2018-12-21T11:09:21.565Z,986.91
2018-12-21T11:10:21.544Z,986.94
2018-12-21T11:11:21.431Z,986.89
2018-12-21T11:12:21.384Z,986.89
2018-12-21T11:13:21.336Z,986.85
2018-12-21T11:14:21.282Z,986.81
2018-12-21T11:15:21.245Z,986.83
2018-12-21T11:16:21.166Z,986.79
2018-12-21T11:17:21.115Z,986.81
2018-12-21T11:18:21.064Z,986.76
2018-12-21T11:19:20.999Z,986.68
2018-12-21T11:20:20.992Z,986.70
2018-12-21T11:21:20.901Z,986.62
2018-12-21T11:22:20.865Z,986.67
2018-12-21T11:23:20.814Z,986.61
2018-12-21T11:24:20.739Z,986.78
2018-12-21T11:25:20.707Z,986.76
2018-12-21T11:26:20.632Z,986.63
2018-12-21T11:27:20.591Z,986.64
2018-12-21T11:28:25.343Z,986.64
2018-12-21T11:29:20.465Z,986.61
2018-12-21T11:30:20.434Z,986.55
2018-12-21T11:31:20.363Z,986.59
2018-12-21T11:32:20.316Z,986.67
2018-12-21T11:33:20.256Z,986.58
2018-12-21T11:34:20.200Z,986.49
2018-12-21T11:35:20.174Z,986.42
2018-12-21T11:36:20.105Z,986.39
2018-12-21T11:37:20.045Z,986.41
2018-12-21T11:38:19.987Z,986.43
2018-12-21T11:39:19.935Z,986.35
2018-12-21T11:40:19.906Z,986.38
2018-12-21T11:41:19.827Z,986.25
2018-12-21T11:42:19.815Z,986.22
2018-12-21T11:43:19.717Z,986.13
2018-12-21T11:44:19.668Z,986.27
2018-12-21T11:45:19.640Z,986.26
2018-12-21T11:46:19.582Z,986.23
2018-12-21T11:47:19.506Z,986.29
2018-12-21T11:48:19.457Z,986.23
2018-12-21T11:49:19.402Z,986.32
2018-12-21T11:50:19.388Z,986.28
2018-12-21T11:51:19.291Z,986.18
2018-12-21T11:52:19.238Z,986.14
2018-12-21T11:53:19.187Z,986.12
2018-12-21T11:54:19.133Z,986.12
2018-12-21T11:55:19.078Z,986.16
2018-12-21T11:56:19.048Z,986.18
2018-12-21T11:57:18.971Z,986.18
2018-12-21T11:58:18.922Z,986.09
2018-12-21T11:59:18.860Z,986.13
2018-12-21T12:00:18.853Z,986.07
2018-12-21T12:01:18.781Z,986.03
2018-12-21T12:02:19.717Z,985.98
2018-12-21T12:03:18.654Z,985.94
2018-12-21T12:04:18.599Z,986.05
2018-12-21T12:05:18.544Z,986.03
2018-12-21T12:06:18.514Z,985.99
2018-12-21T12:07:18.438Z,986.00
2018-12-21T12:08:18.382Z,985.92
2018-12-21T12:09:18.334Z,985.91
2018-12-21T12:10:18.280Z,985.99
2018-12-21T12:11:18.261Z,985.94
2018-12-21T12:12:18.169Z,986.01
2018-12-21T12:13:18.114Z,985.93
2018-12-21T12:14:18.066Z,985.85
2018-12-21T12:15:18.009Z,985.89
2018-12-21T12:16:17.978Z,985.91
2018-12-21T12:17:17.903Z,985.89
2018-12-21T12:18:17.852Z,985.82
2018-12-21T12:19:17.796Z,985.87
2018-12-21T12:20:17.742Z,985.88
2018-12-21T12:21:17.715Z,985.87
2018-12-21T12:22:17.638Z,985.86
2018-12-21T12:23:19.712Z,985.82
2018-12-21T12:24:17.535Z,985.87
2018-12-21T12:25:17.483Z,985.77
2018-12-21T12:26:17.448Z,985.79
2018-12-21T12:27:17.399Z,985.77
2018-12-21T12:28:17.326Z,985.82